Time;durP1;ratioP1;P1;durP2;ratioP2;P2;SDS_P1;SDS_P2;PMS_P1;PMS_P2;Temp;Humidity;BMP_temperature;BMP_pressure;BME280_temperature;BME280_humidity;BME280_pressure;Samples;Min_cycle;Max_cycle;Signal;HPM_P1;HPM_P2
2022/02/06 00:01:44;;;;;;;35.25;28.02;;;;;;;;;;5072163;28;20032;-78
2022/02/06 00:04:11;;;;;;;36.45;27.85;;;;;;;;;;5072254;28;20020;-79
2022/02/06 00:06:38;;;;;;;51.78;35.55;;;;;;;;;;5072047;28;20021;-79
2022/02/06 00:09:04;;;;;;;49.03;34.88;;;;;;;;;;5072158;28;20024;-80
2022/02/06 00:11:30;;;;;;;46.05;34.15;;;;;;;;;;5072040;28;20020;-80
2022/02/06 00:13:56;;;;;;;37.60;28.45;;;;;;;;;;5073113;28;20028;-79
2022/02/06 00:16:23;;;;;;;36.50;26.70;;;;;;;;;;5074235;28;20024;-79
2022/02/06 00:18:49;;;;;;;37.88;27.70;;;;;;;;;;5080612;28;20052;-79
2022/02/06 00:21:18;;;;;;;40.05;28.98;;;;;;;;;;5063993;28;20024;-79
2022/02/06 00:23:47;;;;;;;33.80;26.33;;;;;;;;;;5081726;28;20031;-78
2022/02/06 00:26:27;;;;;;;161.48;97.38;;;;;;;;;;5078367;28;20509;-79
2022/02/06 00:29:14;;;;;;;43.63;30.58;;;;;;;;;;5078993;28;20405;-78
2022/02/06 00:40:00;;;;;;;35.42;25.45;;;;;;;;;;5079922;28;20043;-81
2022/02/06 00:42:27;;;;;;;33.58;24.70;;;;;;;;;;5079638;28;20479;-79
2022/02/06 00:44:54;;;;;;;31.75;23.67;;;;;;;;;;5081746;28;20024;-79
2022/02/06 00:47:20;;;;;;;31.52;25.30;;;;;;;;;;5081403;28;20035;-79
2022/02/06 00:49:47;;;;;;;33.92;26.75;;;;;;;;;;5084336;28;20078;-79
2022/02/06 00:52:25;;;;;;;33.13;26.30;;;;;;;;;;5102069;28;20106;-80
2022/02/06 00:54:51;;;;;;;33.75;26.08;;;;;;;;;;5100494;28;20057;-79
2022/02/06 00:57:20;;;;;;;32.40;25.83;;;;;;;;;;5105058;28;20030;-81
2022/02/06 00:59:47;;;;;;;33.28;26.17;;;;;;;;;;5106324;28;20478;-79
2022/02/06 01:02:13;;;;;;;34.72;26.08;;;;;;;;;;5104924;28;20066;-80
2022/02/06 01:04:39;;;;;;;34.85;26.52;;;;;;;;;;5112383;28;20024;-79
2022/02/06 01:07:05;;;;;;;33.60;26.45;;;;;;;;;;5100278;28;20020;-79
2022/02/06 01:09:31;;;;;;;39.05;27.45;;;;;;;;;;5095294;28;20394;-79
2022/02/06 01:11:58;;;;;;;35.83;28.08;;;;;;;;;;5095275;28;20043;-79
2022/02/06 01:19:41;;;;;;;;;;;;;;;;;;5096249;28;20046;-80
2022/02/06 01:22:11;;;;;;;30.08;24.83;;;;;;;;;;5094898;28;20375;-80
2022/02/06 01:24:55;;;;;;;34.05;24.10;;;;;;;;;;5095224;28;20028;-80
2022/02/06 01:27:31;;;;;;;37.50;26.20;;;;;;;;;;5094896;28;20062;-80
2022/02/06 01:30:09;;;;;;;33.38;25.30;;;;;;;;;;5095234;28;20056;-79
2022/02/06 01:32:43;;;;;;;34.08;25.88;;;;;;;;;;5094647;28;20032;-81
2022/02/06 01:35:14;;;;;;;35.13;27.13;;;;;;;;;;5094720;28;20670;-79
2022/02/06 01:37:48;;;;;;;39.15;28.20;;;;;;;;;;5076666;28;20467;-79
2022/02/06 01:40:41;;;;;;;;;;;;;;;;;;5094841;28;20032;-81
2022/02/06 01:43:12;;;;;;;33.08;25.70;;;;;;;;;;5093589;28;19995;-79
2022/02/06 01:46:03;;;;;;;35.25;25.33;;;;;;;;;;5094559;28;20028;-78
2022/02/06 02:13:01;;;;;;;37.30;28.58;;;;;;;;;;5074113;28;20463;-79
2022/02/06 02:21:11;;;;;;;36.90;25.85;;;;;;;;;;5073772;28;20140;-77
2022/02/06 02:29:21;;;;;;;34.28;25.13;;;;;;;;;;5073523;28;20032;-77
2022/02/06 02:47:47;;;;;;;32.05;25.00;;;;;;;;;;5073324;28;20044;-78
2022/02/06 02:50:17;;;;;;;34.65;24.95;;;;;;;;;;5072785;28;20518;-78
2022/02/06 02:58:24;;;;;;;35.20;24.30;;;;;;;;;;5080107;28;20567;-78
2022/02/06 03:03:27;;;;;;;31.10;22.95;;;;;;;;;;5081808;28;20114;-78
2022/02/06 03:05:55;;;;;;;32.60;22.90;;;;;;;;;;5081768;28;20039;-79
2022/02/06 03:08:22;;;;;;;28.20;19.98;;;;;;;;;;5081800;28;20501;-79
2022/02/06 03:10:53;;;;;;;37.03;26.00;;;;;;;;;;5083254;28;20016;-79
2022/02/06 03:13:23;;;;;;;38.03;26.90;;;;;;;;;;5085099;28;20101;-77
2022/02/06 03:18:29;;;;;;;26.95;20.40;;;;;;;;;;5092069;28;20604;-78
2022/02/06 03:20:55;;;;;;;28.40;21.02;;;;;;;;;;5092804;28;20036;-78
2022/02/06 03:23:23;;;;;;;26.45;20.27;;;;;;;;;;5092756;28;20034;-77
2022/02/06 03:25:53;;;;;;;29.58;21.45;;;;;;;;;;5093011;28;20028;-78
2022/02/06 03:28:20;;;;;;;27.45;21.00;;;;;;;;;;5092619;28;20032;-78
2022/02/06 03:30:47;;;;;;;23.85;19.52;;;;;;;;;;5092836;28;20020;-77
2022/02/06 03:33:13;;;;;;;26.23;19.20;;;;;;;;;;5092505;28;20028;-78
2022/02/06 03:35:39;;;;;;;26.48;19.17;;;;;;;;;;5092796;28;20048;-79
2022/02/06 03:38:07;;;;;;;28.25;21.58;;;;;;;;;;5092496;28;20028;-78
2022/02/06 03:40:40;;;;;;;26.10;19.90;;;;;;;;;;5092631;28;20470;-78
2022/02/06 03:43:13;;;;;;;27.33;20.98;;;;;;;;;;5092358;28;20023;-78
2022/02/06 03:45:46;;;;;;;28.58;20.95;;;;;;;;;;5092579;28;20530;-78
2022/02/06 03:48:18;;;;;;;75.85;50.17;;;;;;;;;;5092360;28;20027;-78
2022/02/06 03:50:49;;;;;;;29.77;21.30;;;;;;;;;;5104690;28;20509;-78
2022/02/06 03:53:18;;;;;;;23.83;18.92;;;;;;;;;;5112844;28;20034;-79
2022/02/06 03:55:44;;;;;;;24.00;19.15;;;;;;;;;;5112512;28;20027;-79
2022/02/06 03:58:10;;;;;;;26.02;20.17;;;;;;;;;;5112742;28;20027;-79
2022/02/06 04:00:36;;;;;;;27.70;20.92;;;;;;;;;;5112664;28;20367;-77
2022/02/06 04:03:03;;;;;;;25.63;19.88;;;;;;;;;;5112763;28;20509;-80
2022/02/06 04:05:31;;;;;;;28.58;20.80;;;;;;;;;;5105138;28;20473;-79
2022/02/06 04:07:57;;;;;;;29.60;20.30;;;;;;;;;;5083838;28;20031;-78
2022/02/06 04:10:31;;;;;;;25.30;19.98;;;;;;;;;;5100319;28;20102;-78
2022/02/06 04:13:00;;;;;;;23.73;19.00;;;;;;;;;;5093158;28;20060;-78
2022/02/06 04:15:36;;;;;;;26.60;20.35;;;;;;;;;;5099968;28;20489;-79
2022/02/06 04:20:47;;;;;;;27.52;21.60;;;;;;;;;;5112598;28;20058;-79
2022/02/06 04:23:13;;;;;;;26.50;20.85;;;;;;;;;;5112510;28;20470;-78
2022/02/06 04:25:39;;;;;;;27.33;21.23;;;;;;;;;;5112508;28;20035;-80
2022/02/06 04:28:05;;;;;;;28.77;20.98;;;;;;;;;;5112657;28;20031;-78
2022/02/06 04:30:32;;;;;;;30.90;23.20;;;;;;;;;;5115402;28;20030;-78
2022/02/06 04:32:58;;;;;;;29.38;21.85;;;;;;;;;;5116514;28;20031;-79
2022/02/06 04:35:30;;;;;;;28.08;21.65;;;;;;;;;;5116159;28;20027;-79
2022/02/06 04:38:12;;;;;;;33.58;22.48;;;;;;;;;;5116461;28;20034;-79
2022/02/06 04:48:39;;;;;;;29.30;22.73;;;;;;;;;;5116045;28;20055;-80
2022/02/06 04:54:07;;;;;;;30.35;22.08;;;;;;;;;;5115784;28;20089;-78
2022/02/06 05:19:21;;;;;;;26.77;22.00;;;;;;;;;;5115835;28;20046;-79
2022/02/06 05:24:06;;;;;;;30.20;22.98;;;;;;;;;;5115501;28;20042;-78
2022/02/06 05:34:18;;;;;;;31.85;24.50;;;;;;;;;;5115088;28;20382;-79
2022/02/06 05:36:45;;;;;;;31.83;24.23;;;;;;;;;;5115103;28;20027;-77
2022/02/06 05:39:11;;;;;;;33.42;25.05;;;;;;;;;;5115276;28;20030;-79
2022/02/06 05:41:37;;;;;;;30.90;23.42;;;;;;;;;;5114087;28;20114;-78
2022/02/06 05:44:04;;;;;;;32.95;24.58;;;;;;;;;;5115228;28;20502;-80
2022/02/06 05:46:30;;;;;;;34.03;25.45;;;;;;;;;;5114878;28;20064;-79
2022/02/06 05:48:56;;;;;;;36.10;24.95;;;;;;;;;;5114973;28;20123;-78
2022/02/06 05:51:22;;;;;;;35.22;24.88;;;;;;;;;;5114756;28;20058;-78
2022/02/06 05:53:49;;;;;;;35.83;24.70;;;;;;;;;;5114955;28;20390;-78
2022/02/06 05:56:18;;;;;;;33.97;27.13;;;;;;;;;;5096654;28;20500;-79
2022/02/06 05:58:44;;;;;;;31.67;25.02;;;;;;;;;;5114847;28;20032;-78
2022/02/06 06:01:11;;;;;;;33.50;25.15;;;;;;;;;;5114900;28;20467;-79
2022/02/06 06:03:37;;;;;;;32.05;24.83;;;;;;;;;;5114494;28;20107;-79
2022/02/06 06:06:04;;;;;;;38.13;27.15;;;;;;;;;;5114928;28;20063;-78
2022/02/06 06:08:30;;;;;;;39.75;28.08;;;;;;;;;;5114412;28;20474;-79
2022/02/06 06:10:56;;;;;;;46.35;31.23;;;;;;;;;;5114706;28;20493;-80
2022/02/06 06:13:22;;;;;;;52.28;32.80;;;;;;;;;;5114428;28;20028;-79
2022/02/06 06:15:49;;;;;;;38.08;26.45;;;;;;;;;;5114137;28;20111;-79
2022/02/06 06:18:15;;;;;;;36.15;26.42;;;;;;;;;;5114602;28;20059;-79
2022/02/06 06:20:44;;;;;;;39.63;28.95;;;;;;;;;;5114025;28;20082;-78
2022/02/06 06:23:11;;;;;;;38.15;27.75;;;;;;;;;;5114382;28;20026;-78
2022/02/06 06:25:41;;;;;;;35.38;28.45;;;;;;;;;;5113939;28;20063;-78
2022/02/06 06:28:08;;;;;;;36.83;27.23;;;;;;;;;;5114324;28;20053;-80
2022/02/06 06:30:35;;;;;;;36.17;25.73;;;;;;;;;;5113833;28;20136;-79
2022/02/06 06:33:04;;;;;;;33.17;26.38;;;;;;;;;;5114201;28;20025;-79
2022/02/06 06:35:30;;;;;;;33.38;25.63;;;;;;;;;;5113788;28;20032;-78
2022/02/06 06:37:59;;;;;;;36.70;26.35;;;;;;;;;;5114355;28;20028;-78
2022/02/06 06:40:25;;;;;;;33.92;27.45;;;;;;;;;;5113831;28;20019;-78
2022/02/06 06:42:52;;;;;;;38.55;28.63;;;;;;;;;;5113840;28;20024;-79
2022/02/06 06:45:18;;;;;;;89.43;57.40;;;;;;;;;;5113950;28;20035;-78
2022/02/06 06:47:54;;;;;;;126.95;70.18;;;;;;;;;;5113554;28;20024;-78
2022/02/06 06:50:21;;;;;;;71.68;46.55;;;;;;;;;;5113340;28;20043;-79
2022/02/06 06:52:47;;;;;;;50.05;34.35;;;;;;;;;;5113236;28;20446;-79
2022/02/06 06:55:16;;;;;;;40.05;28.67;;;;;;;;;;5113971;28;20412;-80
2022/02/06 06:57:49;;;;;;;39.15;27.80;;;;;;;;;;5113682;28;20034;-81
2022/02/06 07:03:00;;;;;;;36.47;28.05;;;;;;;;;;5113549;28;20050;-80
2022/02/06 07:05:26;;;;;;;33.00;25.85;;;;;;;;;;5113473;28;20032;-79
2022/02/06 07:07:53;;;;;;;35.63;24.40;;;;;;;;;;5113457;28;20079;-80
2022/02/06 07:10:19;;;;;;;34.10;25.88;;;;;;;;;;5113278;28;20485;-80
2022/02/06 07:12:45;;;;;;;32.13;24.58;;;;;;;;;;5095151;28;20080;-80
2022/02/06 07:15:11;;;;;;;35.03;25.55;;;;;;;;;;5113135;28;20088;-79
2022/02/06 07:17:37;;;;;;;31.60;24.20;;;;;;;;;;5113001;28;20479;-80
2022/02/06 07:20:03;;;;;;;35.17;26.55;;;;;;;;;;5113117;28;20027;-78
2022/02/06 07:22:34;;;;;;;31.52;25.60;;;;;;;;;;5112934;28;20466;-79
2022/02/06 07:25:01;;;;;;;34.70;24.55;;;;;;;;;;5113063;28;20515;-79
2022/02/06 07:27:31;;;;;;;35.70;26.05;;;;;;;;;;5094642;28;20059;-79
2022/02/06 07:29:58;;;;;;;33.58;24.95;;;;;;;;;;5113054;28;20028;-79
2022/02/06 07:32:24;;;;;;;32.67;25.25;;;;;;;;;;5112994;28;20028;-79
2022/02/06 07:34:51;;;;;;;30.80;23.88;;;;;;;;;;5113235;28;20394;-79
2022/02/06 07:37:17;;;;;;;31.45;23.50;;;;;;;;;;5094417;28;20367;-80
2022/02/06 07:39:44;;;;;;;32.40;24.80;;;;;;;;;;5094660;28;20402;-79
2022/02/06 07:42:11;;;;;;;36.03;26.50;;;;;;;;;;5112889;28;20061;-80
2022/02/06 07:44:38;;;;;;;34.97;25.77;;;;;;;;;;5094659;28;20463;-80
2022/02/06 07:47:19;;;;;;;34.15;26.27;;;;;;;;;;5112822;28;20106;-80
2022/02/06 07:49:48;;;;;;;34.05;25.40;;;;;;;;;;5112476;28;20063;-79
2022/02/06 07:52:15;;;;;;;35.65;26.00;;;;;;;;;;5112723;28;20043;-81
2022/02/06 07:54:41;;;;;;;35.47;24.27;;;;;;;;;;5112688;28;20102;-79
2022/02/06 07:57:07;;;;;;;34.60;26.85;;;;;;;;;;5094325;28;20023;-80
2022/02/06 07:59:34;;;;;;;38.15;27.00;;;;;;;;;;5112598;28;20055;-80
2022/02/06 08:02:00;;;;;;;38.60;26.83;;;;;;;;;;5112506;28;20474;-80
2022/02/06 08:04:28;;;;;;;39.03;29.17;;;;;;;;;;5097133;28;20449;-80
2022/02/06 08:06:54;;;;;;;38.92;28.25;;;;;;;;;;5119402;27;20491;-79
2022/02/06 08:09:32;;;;;;;39.97;27.70;;;;;;;;;;5119623;28;20497;-80
2022/02/06 08:11:58;;;;;;;40.38;28.00;;;;;;;;;;5119299;28;20031;-80
2022/02/06 08:17:09;;;;;;;65.72;41.20;;;;;;;;;;5119529;27;20509;-81
2022/02/06 08:19:35;;;;;;;41.47;29.35;;;;;;;;;;5119029;27;20379;-80
2022/02/06 08:22:01;;;;;;;40.30;27.92;;;;;;;;;;5119451;28;20110;-80
2022/02/06 08:24:28;;;;;;;34.55;25.45;;;;;;;;;;5119352;28;20504;-79
2022/02/06 08:26:54;;;;;;;35.53;25.98;;;;;;;;;;5119062;28;20028;-77
2022/02/06 08:29:20;;;;;;;34.03;23.50;;;;;;;;;;5119220;28;20027;-78
2022/02/06 08:31:46;;;;;;;37.53;24.95;;;;;;;;;;5119008;28;20026;-78
2022/02/06 08:34:12;;;;;;;37.92;25.70;;;;;;;;;;5119333;28;20047;-79
2022/02/06 08:36:38;;;;;;;34.70;24.55;;;;;;;;;;5119169;27;20042;-78
2022/02/06 08:39:04;;;;;;;33.83;22.45;;;;;;;;;;5119339;28;20466;-78
2022/02/06 08:41:31;;;;;;;29.17;21.90;;;;;;;;;;5100692;28;20092;-79
2022/02/06 08:43:57;;;;;;;29.05;20.83;;;;;;;;;;5118975;28;20092;-80
2022/02/06 08:46:23;;;;;;;27.38;20.20;;;;;;;;;;5119323;28;20107;-79
2022/02/06 08:48:49;;;;;;;28.88;21.20;;;;;;;;;;5119037;28;20550;-80
2022/02/06 08:51:15;;;;;;;55.10;38.55;;;;;;;;;;5102016;28;20123;-80
2022/02/06 08:53:41;;;;;;;30.73;20.02;;;;;;;;;;5098629;28;20034;-80
2022/02/06 08:56:08;;;;;;;29.17;21.45;;;;;;;;;;5098593;28;20452;-80
2022/02/06 08:58:35;;;;;;;30.48;20.63;;;;;;;;;;5098510;28;20471;-79
2022/02/06 09:01:02;;;;;;;73.22;48.22;;;;;;;;;;5098349;28;20036;-80
2022/02/06 09:03:28;;;;;;;35.10;24.67;;;;;;;;;;5098626;28;20101;-80
2022/02/06 09:05:54;;;;;;;37.10;25.25;;;;;;;;;;5098285;28;20036;-80
2022/02/06 09:08:20;;;;;;;32.38;21.15;;;;;;;;;;5098638;28;20031;-80
2022/02/06 09:10:47;;;;;;;27.77;21.55;;;;;;;;;;5098400;28;20137;-80
2022/02/06 09:13:14;;;;;;;26.10;19.30;;;;;;;;;;5098553;28;20467;-80
2022/02/06 09:15:40;;;;;;;25.58;19.08;;;;;;;;;;5096666;28;20028;-80
2022/02/06 09:18:07;;;;;;;33.90;22.23;;;;;;;;;;5095169;28;20024;-80
2022/02/06 09:20:33;;;;;;;27.83;20.15;;;;;;;;;;5095274;28;20039;-80
2022/02/06 09:23:03;;;;;;;35.20;21.40;;;;;;;;;;5095001;28;20356;-80
2022/02/06 09:25:29;;;;;;;25.45;19.02;;;;;;;;;;5077155;28;20475;-80
2022/02/06 09:27:55;;;;;;;28.13;20.00;;;;;;;;;;5095015;28;20024;-79
2022/02/06 09:30:25;;;;;;;23.42;17.73;;;;;;;;;;5095206;28;20035;-80
2022/02/06 09:35:18;;;;;;;30.92;22.20;;;;;;;;;;5095088;28;20070;-80
2022/02/06 09:37:44;;;;;;;30.20;22.30;;;;;;;;;;5094844;28;20451;-79
2022/02/06 09:40:14;;;;;;;30.13;23.92;;;;;;;;;;5094757;28;20060;-79
2022/02/06 09:42:42;;;;;;;28.08;20.85;;;;;;;;;;5094825;28;20032;-80
2022/02/06 09:45:10;;;;;;;21.10;15.85;;;;;;;;;;5094891;28;20522;-80
2022/02/06 09:47:37;;;;;;;23.83;16.17;;;;;;;;;;5094933;28;20023;-80
2022/02/06 09:50:04;;;;;;;23.45;16.20;;;;;;;;;;5100990;28;20122;-80
2022/02/06 09:52:30;;;;;;;19.77;14.95;;;;;;;;;;5096856;28;20031;-80
2022/02/06 09:54:58;;;;;;;19.98;15.13;;;;;;;;;;5114794;28;20037;-81
2022/02/06 09:57:28;;;;;;;21.90;16.23;;;;;;;;;;5115000;28;20028;-80
2022/02/06 09:59:55;;;;;;;57.88;36.10;;;;;;;;;;5114416;28;20462;-82
2022/02/06 10:02:41;;;;;;;24.35;17.73;;;;;;;;;;5114844;28;20043;-80
2022/02/06 10:05:07;;;;;;;23.48;17.35;;;;;;;;;;5114736;28;20023;-80
2022/02/06 10:07:42;;;;;;;21.73;17.48;;;;;;;;;;5114508;28;20024;-68
2022/02/06 10:10:10;;;;;;;21.75;15.65;;;;;;;;;;5096221;28;20051;-80
2022/02/06 10:12:37;;;;;;;26.42;19.02;;;;;;;;;;5114383;28;20027;-82
2022/02/06 10:15:04;;;;;;;25.10;16.65;;;;;;;;;;5114667;28;20032;-81
2022/02/06 10:17:32;;;;;;;17.23;13.35;;;;;;;;;;5114172;28;20028;-81
2022/02/06 10:20:00;;;;;;;21.02;15.88;;;;;;;;;;5095970;28;20035;-81
2022/02/06 10:22:28;;;;;;;26.27;18.30;;;;;;;;;;5095983;28;20035;-80
2022/02/06 10:24:58;;;;;;;23.38;17.95;;;;;;;;;;5114588;28;20422;-81
2022/02/06 10:27:45;;;;;;;24.92;17.35;;;;;;;;;;5113922;28;20498;-80
2022/02/06 10:30:19;;;;;;;21.63;16.00;;;;;;;;;;5113966;28;20043;-80
2022/02/06 10:32:46;;;;;;;23.00;16.77;;;;;;;;;;5114165;28;20026;-80
2022/02/06 10:35:12;;;;;;;16.38;13.63;;;;;;;;;;5114064;28;20458;-80
2022/02/06 10:37:38;;;;;;;20.85;15.93;;;;;;;;;;5096107;28;20034;-80
2022/02/06 10:40:07;;;;;;;20.80;15.35;;;;;;;;;;5113721;28;20044;-81
2022/02/06 10:42:33;;;;;;;19.15;14.98;;;;;;;;;;5114093;28;20051;-80
2022/02/06 10:45:18;;;;;;;22.15;16.75;;;;;;;;;;5113825;28;20030;-80
2022/02/06 10:47:46;;;;;;;18.73;13.82;;;;;;;;;;5095901;28;20420;-81
2022/02/06 10:50:16;;;;;;;19.15;12.80;;;;;;;;;;5113692;28;20079;-80
2022/02/06 10:52:43;;;;;;;15.30;11.30;;;;;;;;;;5113804;28;20027;-80
2022/02/06 10:55:09;;;;;;;13.55;10.77;;;;;;;;;;5113739;28;20470;-80
2022/02/06 10:57:36;;;;;;;13.98;11.23;;;;;;;;;;5113841;28;20023;-80
2022/02/06 11:00:04;;;;;;;16.90;13.13;;;;;;;;;;5113436;28;20386;-81
2022/02/06 11:02:32;;;;;;;15.07;10.55;;;;;;;;;;5113681;28;20084;-81
2022/02/06 11:05:04;;;;;;;14.98;10.65;;;;;;;;;;5113430;28;20049;-81
2022/02/06 11:07:30;;;;;;;12.45;9.68;;;;;;;;;;5113360;28;20443;-81
2022/02/06 11:10:07;;;;;;;13.52;11.35;;;;;;;;;;5113176;28;20467;-80
2022/02/06 11:12:34;;;;;;;13.60;9.98;;;;;;;;;;5113313;28;20034;-81
2022/02/06 11:15:02;;;;;;;15.27;11.35;;;;;;;;;;5113451;28;20023;-81
2022/02/06 11:17:32;;;;;;;15.45;9.95;;;;;;;;;;5094806;28;20032;-79
2022/02/06 11:20:09;;;;;;;11.88;8.77;;;;;;;;;;5094773;28;20547;-80
2022/02/06 11:22:36;;;;;;;13.70;9.70;;;;;;;;;;5112860;28;20551;-79
2022/02/06 11:25:05;;;;;;;17.85;12.32;;;;;;;;;;5113269;28;20501;-79
2022/02/06 11:27:32;;;;;;;20.25;14.60;;;;;;;;;;5113074;28;20034;-79
2022/02/06 11:29:58;;;;;;;17.08;11.48;;;;;;;;;;5112961;28;20020;-79
2022/02/06 11:32:27;;;;;;;15.75;10.00;;;;;;;;;;5113068;28;20035;-81
2022/02/06 11:34:55;;;;;;;12.00;10.07;;;;;;;;;;5112945;28;20035;-79
2022/02/06 11:46:01;;;;;;;14.50;12.13;;;;;;;;;;5112821;28;20034;-79
2022/02/06 11:48:29;;;;;;;14.60;11.57;;;;;;;;;;5112696;28;20028;-79
2022/02/06 11:50:55;;;;;;;16.60;11.80;;;;;;;;;;5112699;28;20093;-79
2022/02/06 11:53:42;;;;;;;14.98;11.88;;;;;;;;;;5112573;28;20382;-80
2022/02/06 11:56:27;;;;;;;17.85;12.52;;;;;;;;;;5094155;28;20509;-75
2022/02/06 11:58:53;;;;;;;14.63;11.77;;;;;;;;;;5112528;28;20016;-79
2022/02/06 12:01:20;;;;;;;13.23;11.05;;;;;;;;;;5112755;28;20031;-80
2022/02/06 12:04:05;;;;;;;17.27;11.88;;;;;;;;;;5094106;28;20098;-79
2022/02/06 12:06:37;;;;;;;15.60;11.88;;;;;;;;;;5112558;28;20073;-79
2022/02/06 12:09:03;;;;;;;13.10;10.40;;;;;;;;;;5112808;28;20028;-78
2022/02/06 12:11:30;;;;;;;12.55;10.93;;;;;;;;;;5112561;28;20031;-80
2022/02/06 12:14:20;;;;;;;14.38;10.88;;;;;;;;;;5112557;28;20505;-80
2022/02/06 12:17:09;;;;;;;12.27;9.30;;;;;;;;;;5112612;28;20039;-79
2022/02/06 12:19:36;;;;;;;16.92;11.05;;;;;;;;;;5094134;28;20092;-80
2022/02/06 12:22:28;;;;;;;12.98;8.82;;;;;;;;;;5112168;28;20438;-80
2022/02/06 12:25:13;;;;;;;10.07;8.50;;;;;;;;;;5107889;28;20035;-79
2022/02/06 12:27:39;;;;;;;10.55;8.82;;;;;;;;;;5112544;28;20474;-79
2022/02/06 12:30:07;;;;;;;9.50;8.48;;;;;;;;;;5112552;28;20416;-79
2022/02/06 12:32:41;;;;;;;20.05;8.38;;;;;;;;;;5112226;28;20024;-78
2022/02/06 12:37:53;;;;;;;13.25;9.20;;;;;;;;;;5112340;28;20042;-80
2022/02/06 12:40:21;;;;;;;13.23;7.72;;;;;;;;;;5112233;28;20034;-79
2022/02/06 12:42:49;;;;;;;12.40;9.07;;;;;;;;;;5094046;28;20427;-80
2022/02/06 12:45:20;;;;;;;10.27;7.90;;;;;;;;;;5112150;28;20091;-80
2022/02/06 12:47:46;;;;;;;10.73;6.55;;;;;;;;;;5111960;28;20450;-78
2022/02/06 12:50:19;;;;;;;26.58;18.70;;;;;;;;;;5111740;28;20071;-80
2022/02/06 12:52:46;;;;;;;11.18;8.85;;;;;;;;;;5115143;28;20024;-78
2022/02/06 12:55:13;;;;;;;8.10;6.28;;;;;;;;;;5115507;28;20035;-79
2022/02/06 12:57:43;;;;;;;8.50;5.80;;;;;;;;;;5116101;28;20042;-79
2022/02/06 13:00:09;;;;;;;6.57;5.03;;;;;;;;;;5115522;28;20031;-79
2022/02/06 13:02:36;;;;;;;6.22;4.85;;;;;;;;;;5097667;28;20474;-81
2022/02/06 13:05:07;;;;;;;7.50;5.07;;;;;;;;;;5115447;28;20034;-80
2022/02/06 13:07:41;;;;;;;7.20;5.15;;;;;;;;;;5115800;28;20026;-79
2022/02/06 13:10:08;;;;;;;6.75;4.65;;;;;;;;;;5115884;28;20147;-80
2022/02/06 13:12:47;;;;;;;7.68;5.40;;;;;;;;;;5115684;28;20027;-78
2022/02/06 13:20:59;;;;;;;;;;;;;;;;;;5116087;28;20139;-79
2022/02/06 13:24:01;;;;;;;9.75;6.35;;;;;;;;;;5097371;28;19908;-80
2022/02/06 13:26:25;;;;;;;6.30;5.40;;;;;;;;;;5114892;28;20038;-80
2022/02/06 13:29:02;;;;;;;8.90;5.55;;;;;;;;;;5097337;28;20381;-80
2022/02/06 13:34:22;;;;;;;8.43;5.60;;;;;;;;;;5115167;28;20035;-80
2022/02/06 13:37:07;;;;;;;7.97;4.88;;;;;;;;;;5115101;28;20034;-80
2022/02/06 13:39:43;;;;;;;4.65;3.58;;;;;;;;;;5115126;28;20030;-80
2022/02/06 13:42:10;;;;;;;6.03;4.45;;;;;;;;;;5115040;28;20055;-79
2022/02/06 13:44:36;;;;;;;7.00;6.00;;;;;;;;;;5115063;28;20462;-79
2022/02/06 13:47:04;;;;;;;9.13;5.60;;;;;;;;;;5115154;28;20039;-80
2022/02/06 13:52:17;;;;;;;8.15;6.53;;;;;;;;;;5114772;28;20073;-80
2022/02/06 13:54:49;;;;;;;6.95;6.22;;;;;;;;;;5114746;28;20043;-80
2022/02/06 13:57:16;;;;;;;7.93;5.93;;;;;;;;;;5114741;28;20507;-80
2022/02/06 13:59:43;;;;;;;13.07;10.02;;;;;;;;;;5114821;28;20024;-79
2022/02/06 14:02:10;;;;;;;8.35;6.80;;;;;;;;;;5096121;28;20506;-80
2022/02/06 14:04:39;;;;;;;10.93;7.90;;;;;;;;;;5114785;28;20059;-79
2022/02/06 14:07:18;;;;;;;8.77;5.50;;;;;;;;;;5114558;28;20110;-80
2022/02/06 14:09:56;;;;;;;7.13;4.97;;;;;;;;;;5114679;28;20047;-81
2022/02/06 14:12:24;;;;;;;7.63;4.85;;;;;;;;;;5114522;28;20023;-81
2022/02/06 14:15:00;;;;;;;4.53;3.40;;;;;;;;;;5114575;28;20035;-80
2022/02/06 14:17:26;;;;;;;6.93;4.18;;;;;;;;;;5114565;28;20032;-79
2022/02/06 14:19:54;;;;;;;5.95;4.25;;;;;;;;;;5114315;28;20042;-81
2022/02/06 14:22:38;;;;;;;5.57;3.45;;;;;;;;;;5114307;28;20084;-80
2022/02/06 14:25:07;;;;;;;6.15;3.92;;;;;;;;;;5114326;28;20038;-79
2022/02/06 14:27:37;;;;;;;4.35;3.25;;;;;;;;;;5114076;28;20023;-79
2022/02/06 14:30:22;;;;;;;4.40;3.65;;;;;;;;;;5114258;28;20057;-79
2022/02/06 14:33:07;;;;;;;7.45;5.20;;;;;;;;;;5114286;28;20478;-79
2022/02/06 14:35:54;;;;;;;5.40;4.03;;;;;;;;;;5114011;28;20045;-79
2022/02/06 14:43:33;;;;;;;6.53;4.78;;;;;;;;;;5113855;28;20420;-82
2022/02/06 14:46:01;;;;;;;7.30;5.65;;;;;;;;;;5095541;28;20142;-80
2022/02/06 14:48:27;;;;;;;9.25;6.68;;;;;;;;;;5113775;28;20028;-81
2022/02/06 14:50:54;;;;;;;8.77;6.85;;;;;;;;;;5099773;28;20059;-79
2022/02/06 14:53:21;;;;;;;11.93;8.70;;;;;;;;;;5093481;28;20042;-81
2022/02/06 14:55:48;;;;;;;6.45;5.32;;;;;;;;;;5092187;28;20024;-79
2022/02/06 14:58:14;;;;;;;13.88;9.13;;;;;;;;;;5093430;28;20383;-81
2022/02/06 15:00:41;;;;;;;14.25;10.00;;;;;;;;;;5093058;28;20483;-82
2022/02/06 15:03:10;;;;;;;15.50;11.38;;;;;;;;;;5093029;28;20430;-82
2022/02/06 15:05:37;;;;;;;17.98;12.95;;;;;;;;;;5093129;28;20077;-79
2022/02/06 15:08:04;;;;;;;25.80;18.27;;;;;;;;;;5093284;28;20031;-80
2022/02/06 15:10:31;;;;;;;19.50;13.52;;;;;;;;;;5093120;28;20074;-82
2022/02/06 15:12:57;;;;;;;13.98;9.85;;;;;;;;;;5093230;28;20059;-82
2022/02/06 15:15:25;;;;;;;17.60;10.93;;;;;;;;;;5092345;28;20490;-78
2022/02/06 15:17:57;;;;;;;12.70;8.65;;;;;;;;;;5071567;28;20028;-82
2022/02/06 15:20:23;;;;;;;11.15;8.15;;;;;;;;;;5078053;28;20051;-81
2022/02/06 15:22:50;;;;;;;10.50;7.72;;;;;;;;;;5084819;28;20039;-82
2022/02/06 15:25:16;;;;;;;12.50;7.40;;;;;;;;;;5082823;28;20023;-81
2022/02/06 15:27:42;;;;;;;8.63;5.90;;;;;;;;;;5073540;28;20490;-82
2022/02/06 15:30:08;;;;;;;10.85;6.78;;;;;;;;;;5083249;28;20035;-73
2022/02/06 15:32:34;;;;;;;9.20;7.20;;;;;;;;;;5088090;28;20054;-79
2022/02/06 15:35:01;;;;;;;10.40;7.13;;;;;;;;;;5091518;28;20119;-82
2022/02/06 15:37:29;;;;;;;11.05;8.35;;;;;;;;;;5092529;28;20157;-79
2022/02/06 15:39:58;;;;;;;16.88;11.75;;;;;;;;;;5084451;28;20028;-81
2022/02/06 15:42:24;;;;;;;25.52;18.45;;;;;;;;;;5074865;28;20051;-79
2022/02/06 15:44:51;;;;;;;45.53;31.65;;;;;;;;;;5072302;28;20450;-80
2022/02/06 15:47:17;;;;;;;45.92;35.95;;;;;;;;;;5071999;28;20115;-81
2022/02/06 15:49:44;;;;;;;35.47;25.60;;;;;;;;;;5071862;28;20093;-80
2022/02/06 15:52:11;;;;;;;21.98;15.88;;;;;;;;;;5072813;28;20024;-81
2022/02/06 15:54:37;;;;;;;84.97;57.55;;;;;;;;;;5073398;28;20020;-83
2022/02/06 15:57:03;;;;;;;86.97;58.22;;;;;;;;;;5073249;28;20495;-79
2022/02/06 15:59:29;;;;;;;73.72;50.63;;;;;;;;;;5073277;28;20056;-82
2022/02/06 16:01:56;;;;;;;99.28;69.03;;;;;;;;;;5073284;28;20115;-80
2022/02/06 16:04:23;;;;;;;72.45;50.72;;;;;;;;;;5082000;28;20070;-78
2022/02/06 16:06:52;;;;;;;94.63;67.30;;;;;;;;;;5074063;28;20060;-79
2022/02/06 16:09:27;;;;;;;124.93;95.10;;;;;;;;;;5092231;28;20364;-84
2022/02/06 16:11:53;;;;;;;104.78;78.65;;;;;;;;;;5092369;28;20032;-79
2022/02/06 16:14:19;;;;;;;87.15;69.85;;;;;;;;;;5074128;28;20028;-82
2022/02/06 16:16:45;;;;;;;101.10;78.40;;;;;;;;;;5092139;28;20076;-81
2022/02/06 16:19:14;;;;;;;93.13;67.57;;;;;;;;;;5092437;28;20028;-83
2022/02/06 16:21:41;;;;;;;91.72;69.57;;;;;;;;;;5091975;28;20071;-78
2022/02/06 16:24:07;;;;;;;74.55;56.97;;;;;;;;;;5092188;28;20032;-80
2022/02/06 16:26:33;;;;;;;67.10;49.40;;;;;;;;;;5094829;28;20043;-77
2022/02/06 16:28:59;;;;;;;70.13;50.30;;;;;;;;;;5096207;28;20074;-80
2022/02/06 16:31:25;;;;;;;69.95;48.13;;;;;;;;;;5096173;28;20062;-81
2022/02/06 16:33:52;;;;;;;50.17;36.35;;;;;;;;;;5096291;28;20020;-82
2022/02/06 16:36:18;;;;;;;47.08;32.88;;;;;;;;;;5096170;28;20022;-81
2022/02/06 16:38:45;;;;;;;48.42;35.00;;;;;;;;;;5095923;28;20024;-79
2022/02/06 16:41:11;;;;;;;42.58;29.42;;;;;;;;;;5096188;28;20109;-79
2022/02/06 16:43:37;;;;;;;39.97;32.45;;;;;;;;;;5095817;28;20081;-81
2022/02/06 16:46:03;;;;;;;35.95;27.23;;;;;;;;;;5077937;28;20070;-81
2022/02/06 16:48:30;;;;;;;28.55;22.42;;;;;;;;;;5095846;28;20085;-82
2022/02/06 16:50:57;;;;;;;32.45;23.15;;;;;;;;;;5110053;28;20376;-82
2022/02/06 16:53:23;;;;;;;31.52;23.20;;;;;;;;;;5116383;28;20054;-81
2022/02/06 16:55:49;;;;;;;95.18;68.50;;;;;;;;;;5116159;28;20031;-81
2022/02/06 16:58:16;;;;;;;274.25;181.98;;;;;;;;;;5097758;28;20031;-81
2022/02/06 17:00:42;;;;;;;350.15;247.93;;;;;;;;;;5115836;28;20705;-82
2022/02/06 17:03:08;;;;;;;115.70;79.00;;;;;;;;;;5098004;28;20390;-82
2022/02/06 17:05:34;;;;;;;108.88;71.13;;;;;;;;;;5115920;28;20028;-83
2022/02/06 17:08:01;;;;;;;63.25;43.30;;;;;;;;;;5116133;28;20028;-79
2022/02/06 17:10:30;;;;;;;68.20;44.97;;;;;;;;;;5097600;28;20055;-78